Date,TemperatureHighF,TemperatureAvgF,TemperatureLowF,DewpointHighF,DewpointAvgF,DewpointLowF,HumidityHigh,HumidityAvg,HumidityLow,PressureMaxIn,PressureMinIn,WindSpeedMaxMPH,WindSpeedAvgMPH,GustSpeedMaxMPH,PrecipitationSumIn
2013-1-1,47.0,38.3,33.0,42.0,36.8,31.0,99,94,75,30.29,30.18,2,0,4,0.01
2013-1-2,48.0,36.4,29.0,43.0,34.4,28.0,98,93,74,30.26,30.14,1,0,2,0.01
2013-1-3,50.0,37.3,30.0,44.0,35.5,29.0,97,94,78,30.28,30.18,0,0,0,0.00
2013-1-4,51.0,39.1,31.0,43.0,36.7,30.0,98,92,72,30.29,30.18,1,0,2,0.00
2013-1-5,50.0,43.2,35.0,48.0,42.0,34.0,98,97,91,30.29,30.09,1,0,3,0.52
2013-1-6,47.0,44.1,39.0,46.0,43.5,37.0,99,97,91,30.20,30.06,1,0,3,0.41
2013-1-7,51.0,43.0,36.0,50.0,42.1,35.0,99,97,93,30.28,30.16,0,0,1,0.00
2013-1-8,55.0,44.9,38.0,52.0,43.9,38.0,100,97,89,30.23,30.12,0,0,0,0.00
2013-1-9,52.0,43.6,37.0,49.0,42.1,36.0,99,95,85,30.16,30.02,1,0,4,0.03
2013-1-10,43.0,38.3,36.0,41.0,37.2,35.0,99,97,87,30.14,30.10,1,0,4,0.04
2013-1-13,-200.0,0.0,200.0,-99.9,-99.9,-99.9,0,0,100,30.20,30.20,0,0,0,0.00
2013-1-14,29.0,7.2,29.0,-99.9,-99.9,-99.9,0,0,100,30.37,30.29,2,0,2,0.00
2013-1-17,57.0,46.8,37.0,45.0,40.5,35.0,97,81,57,30.22,30.11,1,0,2,0.00
2013-1-18,58.0,41.1,31.0,45.0,36.3,30.0,97,85,47,30.22,30.13,1,0,4,0.00
2013-1-19,59.0,41.8,31.0,46.0,36.7,30.0,96,84,45,30.24,30.15,1,0,2,0.00
2013-1-20,59.0,41.7,31.0,46.0,37.1,29.0,95,85,52,30.24,30.10,1,0,2,0.00
2013-1-21,59.0,41.3,30.0,45.0,35.9,28.0,95,84,45,30.19,30.08,0,0,0,0.00
2013-1-22,59.0,43.4,31.0,46.0,38.0,29.0,95,84,47,30.14,30.03,0,0,3,0.00
2013-1-23,51.0,46.2,42.0,50.0,44.7,40.0,98,94,89,30.09,29.99,0,0,0,0.09
2013-1-24,52.0,49.7,47.0,52.0,48.8,46.0,99,98,98,30.19,30.06,0,0,0,0.25
2013-1-25,59.0,53.5,50.0,58.0,53.0,48.0,99,98,95,30.19,30.04,2,0,2,0.03
2013-1-26,52.0,47.5,44.0,51.0,44.3,42.0,99,90,69,30.10,30.02,2,0,5,0.01
2013-1-27,51.0,44.5,40.0,42.0,40.4,38.0,97,86,64,30.18,30.09,2,0,4,0.01
2013-1-28,52.0,44.3,37.0,45.0,40.7,35.0,96,87,71,30.31,30.16,2,0,4,0.01
2013-1-29,55.0,46.3,41.0,48.0,42.8,40.0,95,88,73,30.36,30.25,2,0,4,0.00
2013-1-30,58.0,45.8,37.0,50.0,42.9,36.0,98,90,69,30.36,30.27,0,0,3,0.00
2013-1-31,60.0,47.4,34.0,50.0,43.5,33.0,97,87,66,30.28,30.18,1,0,2,0.00
2013-2-1,61.0,46.4,35.0,52.0,42.7,34.0,97,88,59,30.25,30.12,1,0,3,0.00
2013-2-2,60.0,47.0,39.0,52.0,44.7,38.0,96,92,73,30.29,30.21,1,0,4,0.00
2013-2-3,54.0,46.2,40.0,49.0,43.6,39.0,96,91,79,30.26,30.13,1,0,2,0.00
2013-2-4,59.0,45.4,34.0,51.0,42.6,33.0,96,90,71,30.19,30.06,0,0,2,0.00
2013-2-5,54.0,47.5,43.0,47.0,43.8,41.0,95,87,72,30.16,30.09,2,0,5,0.00
2013-2-6,56.0,43.4,34.0,49.0,40.3,33.0,96,89,72,30.21,30.12,1,0,3,0.00
2013-2-7,48.0,39.5,33.0,46.0,37.9,32.0,96,94,88,30.21,30.03,1,0,3,0.11
2013-2-8,47.0,40.4,35.0,42.0,38.4,33.0,97,93,78,30.03,29.96,2,0,4,0.12
2013-2-9,50.0,38.2,29.0,43.0,34.5,28.0,97,87,59,30.14,30.00,1,0,3,0.01
2013-2-10,53.0,39.5,29.0,41.0,34.6,27.0,95,84,58,30.14,30.02,2,0,4,0.00
2013-2-11,55.0,41.0,31.0,40.0,33.7,26.0,95,79,33,30.28,30.09,2,0,7,0.00
2013-2-12,55.0,41.9,31.0,45.0,37.4,29.0,95,85,59,30.38,30.27,0,0,3,0.00
2013-2-13,58.0,43.6,32.0,46.0,38.4,31.0,96,84,53,30.36,30.23,2,0,4,0.00
2013-2-14,62.0,46.5,35.0,47.0,40.4,33.0,95,81,51,30.25,30.15,2,0,4,0.00
2013-2-15,66.0,48.3,36.0,50.0,41.8,34.0,95,81,47,30.27,30.19,1,0,3,0.00
2013-2-16,65.0,49.1,38.0,50.0,41.8,36.0,94,79,44,30.26,30.06,2,0,3,0.00
2013-2-17,60.0,46.3,36.0,49.0,42.1,34.0,95,86,62,30.08,29.97,1,0,5,0.00
2013-2-18,50.0,43.2,37.0,43.0,39.2,35.0,94,87,70,30.07,30.00,1,0,3,0.00
2013-2-19,45.0,40.4,34.0,44.0,39.0,33.0,96,95,93,30.01,29.78,2,0,5,0.39
2013-2-20,52.0,41.1,32.0,43.0,37.5,31.0,97,88,61,30.09,29.85,2,1,5,0.01
2013-2-21,53.0,44.5,37.0,42.0,38.1,34.0,95,80,48,30.21,30.07,2,0,5,0.01
2013-2-22,57.0,43.3,31.0,44.0,37.1,29.0,94,81,50,30.27,30.19,2,0,4,0.01
2013-2-23,54.0,46.1,39.0,44.0,40.3,36.0,95,81,58,30.27,30.16,2,0,5,0.01
2013-2-24,58.0,45.3,36.0,38.0,33.2,25.0,91,66,30,30.28,30.17,2,0,6,0.01
2013-2-25,62.0,44.0,31.0,47.0,38.6,29.0,93,82,54,30.30,30.17,1,0,3,0.00
2013-2-26,62.0,45.4,32.0,41.0,34.1,23.0,94,70,22,30.24,30.12,2,0,5,0.00
2013-2-27,64.0,46.6,32.0,45.0,37.6,30.0,92,73,38,30.38,30.23,1,0,3,0.00
2013-2-28,65.0,50.4,38.0,53.0,45.2,36.0,93,83,64,30.45,30.37,1,0,3,0.00
2013-3-1,68.0,53.1,40.0,55.0,47.3,38.0,94,83,56,30.45,30.22,1,0,3,0.00
2013-3-2,69.0,54.4,45.0,54.0,47.5,43.0,93,79,49,30.26,30.08,0,0,3,0.00
2013-3-3,61.0,52.3,47.0,51.0,46.7,44.0,92,82,58,30.14,30.04,2,0,5,0.00
2013-3-4,61.0,49.8,44.0,50.0,44.5,41.0,91,82,62,30.16,30.05,1,0,4,0.00
2013-3-5,53.0,46.3,41.0,44.0,41.8,39.0,94,85,70,30.10,29.93,3,0,8,0.75
2013-3-6,52.0,46.3,39.0,47.0,43.7,37.0,96,91,68,30.10,29.93,3,0,7,1.92
2013-3-7,54.0,44.1,37.0,44.0,40.0,35.0,95,87,60,30.03,29.87,1,0,3,0.35
2013-3-8,53.0,46.4,41.0,47.0,42.6,40.0,96,87,72,30.10,29.84,3,1,6,0.42
2013-3-9,60.0,50.1,42.0,47.0,42.7,39.0,91,77,46,30.32,30.09,3,0,7,0.01
2013-3-10,66.0,48.1,35.0,49.0,41.0,33.0,95,79,38,30.35,30.25,0,0,3,0.00
2013-3-11,69.0,50.2,36.0,49.0,42.3,34.0,93,77,41,30.29,30.11,2,0,3,0.00
2013-3-12,76.0,53.6,39.0,54.0,46.2,37.0,93,78,41,30.16,30.05,1,0,3,0.00
2013-3-13,76.0,56.7,43.0,57.0,48.7,41.0,93,78,38,30.16,30.06,1,0,3,0.00
2013-3-14,72.0,56.5,44.0,58.0,48.2,42.0,94,76,44,30.15,30.10,1,0,3,0.00
2013-3-15,70.0,54.4,41.0,55.0,46.0,38.0,91,75,46,30.15,30.04,1,0,3,0.00
2013-3-16,72.0,54.9,43.0,56.0,44.4,39.0,93,72,35,30.11,30.03,2,0,4,0.00
2013-3-17,68.0,52.3,41.0,47.0,41.6,34.0,92,71,29,30.14,30.04,2,0,4,0.00
2013-3-18,64.0,50.3,37.0,54.0,43.6,35.0,93,79,56,30.13,30.03,1,0,4,0.00
2013-3-19,75.0,53.4,42.0,52.0,44.5,39.0,93,75,38,30.16,30.07,3,0,7,0.01
2013-3-20,62.0,54.4,49.0,55.0,51.0,47.0,95,89,72,30.14,30.09,1,0,3,0.01
2013-3-21,65.0,51.8,42.0,50.0,43.7,39.0,91,75,52,30.14,30.01,2,0,5,0.00
2013-3-22,67.0,51.0,39.0,40.0,33.8,19.0,92,60,18,30.10,30.02,2,0,5,0.00
2013-3-23,67.0,50.0,35.0,43.0,36.6,27.0,90,65,22,30.13,30.03,2,0,3,0.00
2013-3-24,74.0,52.2,37.0,51.0,43.1,34.0,91,74,38,30.10,29.97,1,0,5,0.00
2013-3-25,71.0,51.1,39.0,48.0,42.6,37.0,92,75,41,30.03,29.93,1,0,3,0.00
2013-3-26,72.0,53.8,43.0,54.0,45.7,40.0,91,76,46,30.02,29.91,1,0,3,0.00
2013-3-27,65.0,53.5,45.0,54.0,48.6,42.0,93,84,62,30.03,29.97,2,0,7,0.00
2013-3-28,65.0,55.8,51.0,58.0,52.6,49.0,95,90,75,30.10,30.02,0,0,3,0.00
2013-3-29,76.0,58.3,46.0,59.0,50.9,44.0,95,79,48,30.09,30.02,1,0,5,0.00
2013-3-30,71.0,55.9,50.0,54.0,49.7,-99.9,94,84,47,30.09,30.01,2,0,6,0.00
2013-3-31,62.0,55.6,52.0,57.0,52.2,51.0,95,89,69,30.08,30.01,2,0,6,0.00
2013-4-1,61.0,54.2,48.0,56.0,51.9,46.0,95,91,79,30.16,30.06,1,0,3,0.00
2013-4-2,69.0,54.2,44.0,57.0,49.8,43.0,95,86,58,30.20,30.08,0,0,0,0.00
2013-4-3,77.0,56.5,44.0,58.0,49.0,42.0,94,79,42,30.14,29.98,0,0,0,0.00
2013-4-4,58.0,52.7,49.0,56.0,50.7,46.0,95,93,90,30.14,30.03,1,0,3,0.00
2013-4-5,62.0,55.2,50.0,56.0,51.3,47.0,95,87,67,30.20,30.12,1,0,3,0.00
2013-4-6,62.0,53.9,48.0,56.0,49.7,46.0,94,86,72,30.22,30.14,2,0,3,0.00
2013-4-7,69.0,54.0,45.0,57.0,48.5,43.0,94,83,61,30.19,29.90,2,0,5,0.00
2013-4-8,62.0,52.6,45.0,48.0,40.8,34.0,93,67,36,30.03,29.86,3,1,9,0.00
2013-4-9,70.0,53.7,39.0,47.0,40.0,34.0,94,65,26,30.10,30.02,3,1,7,0.00
2013-4-10,83.0,62.4,47.0,52.0,47.1,42.0,87,61,29,30.16,30.05,3,1,6,0.00
2013-4-11,58.0,52.3,47.0,50.0,42.9,-99.9,86,78,74,30.09,29.89,2,1,4,0.00
2013-4-12,78.0,53.8,40.0,54.0,45.6,38.0,93,76,40,29.94,29.83,1,0,5,0.00
2013-4-13,73.0,52.6,43.0,53.0,43.7,39.0,92,74,45,29.94,29.86,3,0,5,0.00
2013-4-14,68.0,51.4,40.0,45.0,40.4,36.0,92,70,34,29.94,29.89,3,1,6,0.00
2013-4-15,55.0,48.2,44.0,47.0,40.3,35.0,93,75,54,29.98,29.89,3,1,8,0.01
2013-4-16,65.0,48.4,35.0,40.0,35.4,31.0,92,65,32,30.15,29.98,2,0,5,0.01
2013-4-17,66.0,51.4,38.0,41.0,34.2,26.0,90,58,24,30.26,30.15,3,0,6,0.00
2013-4-18,76.0,53.7,37.0,46.0,37.7,31.0,90,61,21,30.28,30.19,2,0,5,0.00
2013-4-19,84.0,57.9,41.0,53.0,44.1,37.0,88,64,31,30.26,30.08,2,0,5,0.00
2013-4-20,83.0,60.1,45.0,51.0,44.8,40.0,91,63,22,30.11,29.98,2,0,5,0.00
2013-4-21,88.0,61.6,44.0,53.0,44.2,38.0,89,60,19,30.04,29.93,2,0,4,0.00
2013-4-22,85.0,60.0,48.0,56.0,49.2,43.0,89,70,32,29.98,29.86,2,0,5,0.00
2013-4-23,79.0,55.8,45.0,54.0,48.7,43.0,94,79,42,29.96,29.88,2,0,6,0.00
2013-4-24,55.0,49.5,46.0,49.0,43.5,-99.9,92,88,83,29.99,29.85,1,0,2,0.00
2013-4-25,74.0,55.1,44.0,54.0,47.8,42.0,94,79,45,30.14,29.98,1,0,6,0.00
2013-4-26,78.0,57.7,47.0,58.0,49.7,44.0,92,77,46,30.22,30.14,2,0,5,0.00
2013-4-27,85.0,58.7,43.0,57.0,48.6,41.0,93,73,38,30.22,30.08,2,0,5,0.00
2013-4-28,83.0,60.9,43.0,59.0,51.0,41.0,92,73,41,30.09,29.89,1,0,3,0.00
2013-4-29,92.0,66.4,50.0,59.0,50.4,47.0,91,63,23,29.91,29.77,2,0,4,0.00
2013-4-30,81.0,61.9,47.0,56.0,46.2,37.0,89,62,22,29.85,29.78,2,0,4,0.00
2013-5-1,83.0,59.0,44.0,55.0,48.5,41.0,94,71,26,30.10,29.85,2,0,5,0.00
2013-5-2,97.0,65.1,47.0,58.0,46.5,35.0,89,59,14,30.14,30.08,2,0,7,0.00
2013-5-3,93.0,65.5,47.0,55.0,42.9,33.0,79,51,14,30.11,29.82,2,0,7,0.00
2013-5-4,81.0,58.5,48.0,53.0,46.1,40.0,84,66,32,29.83,29.65,2,0,8,0.00
2013-5-5,64.0,57.0,53.0,52.0,49.2,47.0,87,76,62,29.82,29.64,3,1,8,0.00
2013-5-6,65.0,57.8,54.0,53.0,51.1,50.0,89,79,61,29.98,29.82,2,0,6,0.00
2013-5-7,74.0,59.9,52.0,53.0,50.2,46.0,90,72,44,30.06,29.97,2,0,7,0.02
2013-5-8,70.0,56.0,45.0,55.0,48.3,42.0,92,76,55,30.16,30.06,1,0,6,0.02
2013-5-9,79.0,57.6,50.0,56.0,49.7,46.0,89,76,44,30.19,30.08,1,0,3,0.00
2013-5-10,84.0,59.6,49.0,59.0,49.2,-99.9,91,75,43,30.20,30.08,2,0,4,0.00
2013-5-11,94.0,63.8,48.0,61.0,51.1,-99.9,92,70,28,30.16,30.03,1,0,5,0.00
2013-5-12,90.0,65.9,50.0,60.0,52.1,45.0,90,65,27,30.13,30.01,2,0,4,0.00
2013-5-13,86.0,62.6,48.0,59.0,48.7,41.0,85,63,36,30.09,29.97,2,0,4,0.00
2013-5-14,75.0,59.3,48.0,56.0,48.3,42.0,90,69,40,30.06,29.96,2,0,6,0.00
2013-5-15,71.0,55.8,45.0,48.0,45.4,42.0,91,71,39,30.09,30.05,2,0,4,0.00
2013-5-16,72.0,55.2,52.0,56.0,33.7,-99.9,91,76,51,30.06,29.99,1,0,5,0.01
2013-5-17,73.0,56.0,46.0,48.0,40.7,-99.9,92,68,31,30.11,30.01,2,0,6,0.01
2013-5-18,76.0,58.1,44.0,51.0,45.5,38.0,91,67,25,30.15,30.09,2,0,5,0.00
2013-5-19,85.0,62.4,45.0,54.0,45.5,40.0,91,60,22,30.14,29.98,2,0,4,0.00
2013-5-20,91.0,65.2,45.0,53.0,40.9,28.0,85,50,12,30.01,29.93,2,0,7,0.00
2013-5-21,68.0,56.2,49.0,51.0,44.2,40.0,79,65,38,30.02,29.93,4,1,8,0.00
2013-5-22,67.0,52.4,42.0,42.0,37.1,30.0,81,59,28,30.01,29.96,3,1,6,0.00
2013-5-23,65.0,53.7,47.0,46.0,41.7,39.0,80,65,43,30.04,29.96,2,1,5,0.00
2013-5-24,78.0,53.2,39.0,48.0,41.7,36.0,90,68,32,30.04,29.98,2,0,4,0.00
2013-5-25,69.0,53.4,44.0,48.0,44.5,40.0,91,74,46,30.09,30.01,2,0,5,0.00
2013-5-26,70.0,58.6,52.0,54.0,50.6,48.0,94,76,51,30.15,30.08,2,1,5,0.01
2013-5-27,65.0,58.3,51.0,54.0,51.8,47.0,90,79,66,30.15,30.03,2,0,4,0.01
2013-5-28,73.0,61.4,53.0,58.0,53.1,46.0,93,76,46,30.03,29.92,2,0,4,0.01
2013-5-29,75.0,59.2,50.0,57.0,50.0,45.0,88,73,43,29.99,29.92,3,1,5,0.01
2013-5-30,80.0,59.0,46.0,48.0,40.9,15.0,91,60,10,30.02,29.95,2,0,5,0.00
2013-5-31,89.0,64.2,44.0,55.0,44.4,38.0,88,56,17,30.01,29.91,3,0,5,0.00
2013-6-1,98.0,67.9,50.0,59.0,48.7,43.0,84,56,17,29.95,29.77,1,0,4,0.00
2013-6-2,59.0,57.6,57.0,48.0,47.7,47.0,71,69,66,29.80,29.79,1,0,2,0.00
2013-6-14,61.0,59.6,58.0,45.0,44.7,44.0,61,58,55,29.87,29.86,0,0,0,0.00
2013-6-15,76.0,58.5,45.0,56.0,49.2,40.0,91,73,49,30.03,29.86,2,0,6,0.00
2013-6-16,84.0,61.8,48.0,51.0,44.9,-99.9,91,65,26,30.09,30.02,3,1,5,0.00
2013-6-17,79.0,62.2,51.0,56.0,51.2,47.0,87,69,39,30.10,30.05,2,0,5,0.00
2013-6-18,70.0,59.1,53.0,52.0,49.0,46.0,88,71,43,30.06,30.02,3,1,6,0.00
2013-6-19,73.0,60.1,50.0,50.0,47.0,45.0,85,64,41,30.06,30.02,3,1,6,0.00
2013-6-20,83.0,53.1,45.0,52.0,45.9,40.0,90,79,25,30.04,29.95,1,0,4,0.00
2013-6-21,81.0,75.0,69.0,50.0,48.0,46.0,43,38,34,29.93,29.93,1,1,2,0.00
2013-6-22,90.0,69.3,47.0,58.0,49.6,43.0,89,54,26,29.94,29.86,2,1,4,0.00
2013-6-23,70.0,62.9,56.0,61.0,56.7,52.0,89,81,70,29.91,29.83,1,0,3,0.00
2013-6-24,64.0,60.5,59.0,59.0,57.7,57.0,94,90,83,29.94,29.81,1,0,4,0.02
2013-6-25,66.0,61.3,57.0,64.0,59.5,55.0,95,93,91,30.02,29.93,0,0,2,0.10
2013-6-26,86.0,70.2,60.0,70.0,63.4,58.0,95,81,55,30.04,29.96,2,0,4,0.02
2013-6-27,95.0,70.9,57.0,65.0,59.8,55.0,92,72,33,30.06,29.99,1,0,3,0.00
2013-6-28,100.0,72.2,57.0,67.0,57.0,51.0,86,64,30,30.03,29.89,2,0,4,0.00
2013-6-29,100.0,75.5,59.0,63.0,53.4,46.0,80,52,18,29.92,29.80,2,0,4,0.00
2013-6-30,97.0,72.6,58.0,62.0,53.8,48.0,85,58,21,29.85,29.75,2,0,4,0.00
2013-7-1,91.0,72.7,58.0,62.0,56.8,53.0,83,61,33,29.89,29.80,2,0,5,0.00
2013-7-2,93.0,70.7,61.0,62.0,58.1,56.0,86,67,33,29.93,29.85,2,0,5,0.00
2013-7-3,91.0,70.8,58.0,64.0,58.6,54.0,88,68,40,29.93,29.78,1,0,4,0.00
2013-7-4,89.0,70.1,60.0,64.0,59.2,55.0,86,70,43,29.79,29.72,2,0,6,0.00
2013-7-5,81.0,63.9,53.0,59.0,54.4,50.0,92,73,46,29.83,29.74,1,0,7,0.00
2013-7-6,78.0,59.7,54.0,58.0,52.8,50.0,89,79,48,29.84,29.77,2,0,5,0.00
2013-7-7,81.0,60.3,54.0,56.0,52.3,50.0,87,77,41,29.89,29.80,2,0,5,0.00
2013-7-8,82.0,60.1,53.0,57.0,50.8,-99.9,90,76,30,29.98,29.89,1,0,7,0.00
2013-7-9,95.0,66.1,50.0,60.0,53.4,47.0,91,69,28,30.01,29.91,1,0,4,0.00
2013-7-10,86.0,63.3,54.0,61.0,52.6,-99.9,91,73,42,30.00,29.90,2,0,5,0.00
2013-7-11,81.0,61.8,54.0,58.0,53.4,50.0,90,76,46,29.96,29.89,2,0,7,0.00
2013-7-12,82.0,60.9,52.0,59.0,52.4,49.0,91,76,44,29.96,29.88,1,0,6,0.00
2013-7-13,88.0,61.9,47.0,59.0,52.3,45.0,93,74,36,29.98,29.90,2,0,5,0.00
2013-7-14,85.0,62.5,50.0,59.0,52.9,48.0,92,74,41,30.00,29.90,2,0,5,0.00
2013-7-15,78.0,60.6,52.0,57.0,52.9,49.0,90,77,48,29.94,29.84,2,0,6,0.00
2013-7-16,75.0,60.8,55.0,58.0,53.7,51.0,89,79,53,30.04,29.89,2,0,4,0.00
2013-7-17,86.0,64.3,56.0,59.0,54.7,52.0,87,73,37,30.09,30.01,1,0,3,0.00
2013-7-18,88.0,61.9,48.0,59.0,52.7,45.0,92,75,37,30.07,29.93,1,0,5,0.00
2013-7-19,85.0,62.4,50.0,60.0,53.5,47.0,93,75,42,29.98,29.83,2,0,5,0.00
2013-7-20,79.0,60.7,53.0,60.0,52.2,-99.9,90,77,50,29.88,29.78,2,0,5,0.00
2013-7-21,83.0,63.8,52.0,60.0,54.2,49.0,91,74,42,29.91,29.80,2,0,5,0.00
2013-7-22,78.0,65.4,59.0,62.0,56.9,54.0,88,75,52,29.97,29.90,1,0,6,0.00
2013-7-23,86.0,67.7,59.0,61.0,57.6,55.0,90,72,39,30.00,29.94,1,0,4,0.00
2013-7-24,89.0,66.7,55.0,61.0,56.2,52.0,90,72,38,29.98,29.89,1,0,5,0.00
2013-7-25,84.0,62.6,52.0,61.0,54.7,50.0,93,77,45,30.04,29.95,2,0,5,0.00
2013-7-26,80.0,62.4,54.0,61.0,54.8,51.0,92,78,52,30.10,30.01,2,0,7,0.00
2013-7-27,82.0,63.4,55.0,61.0,55.4,52.0,92,77,47,30.05,29.88,2,0,6,0.00
2013-7-28,76.0,61.0,54.0,59.0,54.3,51.0,92,80,55,29.91,29.84,2,0,6,0.00
2013-7-29,76.0,59.5,55.0,58.0,52.6,50.0,87,78,53,30.04,29.89,2,0,5,0.00
2013-7-30,81.0,61.8,53.0,58.0,52.6,49.0,88,74,39,30.11,30.04,2,0,7,0.00
2013-7-31,82.0,62.3,54.0,59.0,52.4,48.0,89,72,44,30.11,30.01,2,0,5,0.00
2013-8-1,79.0,60.7,50.0,55.0,49.8,46.0,90,70,37,30.09,29.98,2,1,4,0.00
2013-8-2,83.0,59.5,48.0,59.0,51.0,45.0,92,76,44,29.99,29.91,2,0,5,0.00
2013-8-3,75.0,59.9,53.0,58.0,53.2,50.0,90,79,55,30.00,29.92,2,0,6,0.00
2013-8-4,78.0,60.8,54.0,59.0,53.6,51.0,91,79,51,30.02,29.95,2,0,5,0.00
2013-8-5,82.0,60.2,50.0,59.0,52.0,48.0,92,77,44,30.04,29.93,1,0,5,0.00
2013-8-6,78.0,61.2,52.0,59.0,53.4,49.0,91,77,51,30.07,29.99,2,0,6,0.00
2013-8-7,79.0,63.3,57.0,57.0,54.5,52.0,88,75,47,30.11,30.02,2,0,4,0.00
2013-8-8,80.0,60.7,54.0,59.0,53.6,51.0,91,79,48,30.05,29.94,2,0,5,0.00
2013-8-9,82.0,63.0,54.0,59.0,54.3,50.0,88,75,46,30.00,29.92,2,0,5,0.00
2013-8-10,83.0,63.8,55.0,60.0,55.2,52.0,90,76,45,30.04,29.97,1,0,4,0.00
2013-8-11,84.0,63.6,54.0,61.0,54.8,51.0,91,76,45,30.03,29.92,1,0,5,0.00
2013-8-12,86.0,62.4,51.0,61.0,54.2,48.0,92,78,43,30.00,29.93,2,0,5,0.00
2013-8-13,89.0,63.9,49.0,57.0,49.7,-99.9,91,68,34,29.99,29.90,2,0,5,0.00
2013-8-14,89.0,65.8,50.0,60.0,48.8,-99.9,86,65,23,29.98,29.91,2,0,4,0.00
2013-8-15,92.0,61.5,57.0,66.0,39.6,-99.9,91,68,36,29.96,29.89,2,0,3,0.00
2013-8-16,93.0,67.5,58.0,67.0,52.7,-99.9,92,68,36,29.98,29.91,2,0,4,0.00
2013-8-17,81.0,64.4,54.0,60.0,51.3,-99.9,84,65,46,29.99,29.89,2,0,4,0.00
2013-8-18,93.0,65.7,52.0,63.0,56.0,49.0,94,75,30,29.92,29.78,1,0,7,0.00
2013-8-19,87.0,61.6,56.0,62.0,45.7,-99.9,91,73,38,29.93,29.83,2,0,6,0.00
2013-8-20,81.0,63.0,57.0,59.0,53.6,-99.9,91,77,45,29.93,29.84,2,0,5,0.00
2013-8-21,82.0,62.4,55.0,57.0,53.6,52.0,90,76,35,29.96,29.85,1,0,4,0.00
2013-8-22,82.0,62.8,52.0,58.0,53.6,49.0,91,74,36,29.98,29.87,1,0,3,0.00
2013-8-23,84.0,62.5,53.0,60.0,53.3,50.0,91,74,43,29.94,29.81,2,0,3,0.00
2013-8-24,85.0,64.3,51.0,60.0,52.9,-99.9,91,71,38,29.91,29.83,2,0,5,0.00
2013-8-25,86.0,66.8,58.0,64.0,57.1,52.0,91,74,41,29.95,29.89,1,0,6,0.00
2013-8-26,84.0,65.9,59.0,61.0,55.7,50.0,88,72,43,30.01,29.88,2,0,3,0.00
2013-8-27,76.0,54.9,49.0,58.0,49.0,45.0,88,81,50,29.92,29.87,0,0,3,0.00
2013-8-28,89.0,73.8,61.0,63.0,59.7,57.0,86,64,34,29.95,29.84,1,0,4,0.00
2013-8-29,86.0,66.0,55.0,65.0,58.3,53.0,93,78,45,30.03,29.95,2,0,3,0.00
2013-8-30,96.0,69.3,55.0,65.0,56.0,50.0,92,68,25,30.03,29.90,2,0,4,0.00
2013-8-31,90.0,66.9,55.0,57.0,50.9,-99.9,80,61,26,29.97,29.87,1,0,4,0.00
2013-9-1,88.0,69.7,61.0,62.0,56.2,53.0,81,64,37,29.93,29.84,1,0,4,0.00
2013-9-2,85.0,69.7,64.0,63.0,60.0,57.0,87,73,45,29.95,29.86,1,0,4,0.01
2013-9-3,84.0,67.9,56.0,60.0,54.2,49.0,89,65,33,29.98,29.92,1,0,5,0.01
2013-9-4,83.0,66.0,55.0,58.0,53.9,52.0,89,68,39,30.03,29.95,2,1,5,0.00
2013-9-5,80.0,66.9,60.0,56.0,54.6,52.0,83,67,40,30.01,29.96,2,1,5,0.00
2013-9-6,93.0,66.6,49.0,57.0,52.2,46.0,91,65,25,30.01,29.80,1,0,3,0.00
2013-9-7,96.0,67.0,54.0,60.0,52.0,-99.9,84,64,25,29.88,29.81,2,0,6,0.00
2013-9-8,87.0,64.1,53.0,62.0,55.6,50.0,92,77,43,29.88,29.76,2,0,4,0.00
2013-9-9,90.0,65.2,54.0,62.0,56.0,51.0,92,75,38,29.82,29.72,1,0,4,0.00
2013-9-10,67.0,59.7,55.0,59.0,55.8,53.0,93,87,73,29.93,29.77,2,0,7,0.00
2013-9-11,76.0,64.3,57.0,60.0,57.2,54.0,89,79,58,30.01,29.93,1,0,5,0.00
2013-9-12,84.0,65.5,57.0,63.0,57.6,54.0,90,78,47,29.98,29.86,1,0,4,0.00
2013-9-13,84.0,64.1,55.0,61.0,53.6,45.0,92,73,31,29.92,29.75,3,0,4,0.00
2013-9-14,75.0,61.1,53.0,59.0,52.3,-99.9,89,76,58,29.83,29.73,2,1,5,0.00
2013-9-15,80.0,64.6,50.0,59.0,54.2,48.0,92,72,47,29.86,29.79,2,0,4,0.00
2013-9-16,84.0,64.7,52.0,61.0,54.7,49.0,93,73,43,29.89,29.80,2,0,4,0.00
2013-9-17,73.0,62.1,55.0,56.0,53.2,50.0,85,74,48,29.90,29.86,3,1,7,0.00
2013-9-18,62.0,53.1,48.0,50.0,47.1,44.0,91,81,58,29.90,29.87,1,0,2,0.00
2013-9-19,90.0,64.0,45.0,53.0,45.5,40.0,85,56,22,29.88,29.73,2,0,4,0.00
2013-9-20,74.0,61.1,49.0,59.0,51.0,40.0,84,70,56,29.88,29.79,2,0,5,0.00
2013-9-21,63.0,58.3,53.0,60.0,55.2,-99.9,96,92,84,29.93,29.83,0,0,3,0.53
2013-9-22,68.0,57.6,50.0,58.0,52.5,49.0,97,84,60,30.02,29.92,2,0,5,0.01
2013-9-23,79.0,61.1,48.0,61.0,53.3,46.0,94,78,47,30.02,29.91,2,0,5,0.00
2013-9-24,73.0,61.2,53.0,58.0,52.0,48.0,92,74,43,30.00,29.94,2,1,6,0.00
2013-9-25,66.0,57.3,51.0,50.0,47.0,43.0,90,70,46,29.95,29.84,2,1,7,0.00
2013-9-26,69.0,55.0,43.0,48.0,42.4,38.0,92,66,32,30.01,29.84,2,0,7,0.00
2013-9-27,74.0,55.7,41.0,48.0,40.7,34.0,89,62,23,30.10,30.01,2,0,4,0.00
2013-9-28,80.0,59.0,42.0,50.0,41.4,-99.9,84,58,28,30.10,29.99,2,0,4,0.00
2013-9-29,80.0,61.3,47.0,58.0,52.0,44.0,91,74,40,30.12,30.02,2,0,3,0.00
2013-9-30,73.0,62.2,53.0,61.0,55.6,50.0,93,80,58,30.09,29.96,2,0,5,0.00
2013-10-1,68.0,60.2,53.0,54.0,50.5,48.0,82,71,55,29.96,29.93,1,0,2,0.00
2013-10-2,74.0,57.1,44.0,54.0,46.1,41.0,91,70,37,30.02,29.92,1,0,3,0.00
2013-10-3,73.0,55.5,42.0,45.0,39.2,32.0,90,60,23,30.06,29.95,3,0,5,0.00
2013-10-4,76.0,69.0,53.0,43.0,36.4,32.0,59,32,22,30.11,30.01,2,0,6,0.00
2013-10-5,84.0,62.8,42.0,47.0,36.9,28.0,75,45,15,30.19,30.09,2,0,5,0.00
2013-10-6,85.0,63.4,44.0,48.0,38.9,32.0,73,45,15,30.14,30.01,1,0,3,0.00
2013-10-7,81.0,59.6,44.0,44.0,37.8,34.0,71,48,22,30.02,29.88,1,0,4,0.00
2013-10-8,71.0,54.1,42.0,54.0,43.6,34.0,89,68,52,29.93,29.75,2,0,5,0.00
2013-10-9,66.0,53.4,45.0,49.0,45.4,41.0,92,76,50,29.79,29.65,1,0,6,0.00
2013-10-10,62.0,49.3,40.0,51.0,44.5,37.0,92,84,65,30.04,29.79,1,0,5,0.00
2013-10-11,66.0,52.5,45.0,52.0,46.9,43.0,92,82,54,30.10,29.98,1,0,3,0.00
2013-10-12,70.0,51.8,39.0,52.0,42.2,-99.9,94,74,46,30.03,29.91,2,0,5,0.00
2013-10-13,70.0,54.9,44.0,52.0,45.9,41.0,94,74,45,30.08,29.95,2,0,4,0.00
2013-10-14,72.0,54.9,40.0,48.0,42.5,37.0,89,67,35,30.12,29.98,1,0,3,0.00
2013-10-15,73.0,59.6,41.0,43.0,39.5,36.0,83,51,28,30.05,29.93,2,0,4,0.00
2013-10-16,78.0,57.0,42.0,48.0,39.3,35.0,79,56,26,30.09,30.01,1,0,4,0.00
2013-10-17,77.0,56.0,41.0,47.0,38.3,34.0,77,55,26,30.09,29.96,1,0,4,0.00
2013-10-18,76.0,56.3,41.0,46.0,39.1,33.0,76,56,26,30.06,29.97,1,0,3,0.00
2013-10-19,78.0,55.9,42.0,49.0,40.3,-99.9,84,62,23,30.07,29.98,0,0,3,0.00
2013-10-20,76.0,55.8,42.0,53.0,45.6,38.0,87,71,40,30.04,29.91,0,0,2,0.00
2013-10-21,73.0,53.1,40.0,52.0,44.1,37.0,90,74,41,30.01,29.90,1,0,4,0.00
2013-10-22,72.0,53.2,40.0,54.0,45.9,38.0,93,78,47,30.02,29.93,1,0,3,0.00
2013-10-23,71.0,51.6,42.0,54.0,46.4,40.0,94,84,50,30.00,29.90,1,0,4,0.00
2013-10-24,60.0,51.6,46.0,51.0,47.4,44.0,93,86,71,30.09,29.98,2,0,5,0.00
2013-10-25,69.0,55.6,42.0,54.0,48.0,40.0,94,78,48,30.17,30.07,0,0,0,0.00
2013-10-26,73.0,53.7,41.0,53.0,44.6,-99.9,93,76,39,30.15,30.01,0,0,0,0.00
2013-10-27,59.0,49.7,40.0,52.0,44.9,38.0,93,84,67,30.05,29.75,2,0,6,0.00
2013-10-28,56.0,51.7,49.0,49.0,45.8,-99.9,95,84,67,29.88,29.71,2,0,6,0.01
2013-10-29,59.0,51.7,44.0,52.0,47.3,41.0,93,85,68,30.07,29.88,2,0,3,0.01
2013-10-30,62.0,48.1,37.0,51.0,43.2,35.0,94,84,61,30.15,30.07,1,0,4,0.00
2013-11-4,62.0,48.2,34.0,38.0,34.2,29.0,91,63,30,30.06,29.93,2,0,5,0.00
2013-11-5,67.0,55.7,42.0,41.0,36.7,32.0,76,52,28,30.25,30.07,1,0,5,0.00
2013-11-6,69.0,51.1,39.0,44.0,39.0,34.0,83,66,34,30.25,30.15,1,0,3,0.00
2013-11-7,68.0,53.0,43.0,47.0,40.3,36.0,82,65,31,30.18,30.07,0,0,2,0.00
2013-11-8,71.0,52.9,40.0,50.0,43.8,37.0,90,74,43,30.10,29.95,1,0,2,0.00
2013-11-9,67.0,50.2,41.0,49.0,42.0,-99.9,92,78,38,30.08,29.99,1,0,4,0.00
2013-11-10,61.0,50.8,44.0,52.0,46.0,42.0,93,84,58,30.14,30.06,1,0,2,0.00
2013-11-11,64.0,52.9,43.0,51.0,46.6,41.0,93,80,51,30.17,30.08,0,0,1,0.00
2013-11-12,67.0,56.5,48.0,51.0,47.8,44.0,86,74,51,30.26,30.16,1,0,3,0.00
2013-11-13,73.0,55.2,43.0,50.0,45.3,40.0,92,73,38,30.25,30.10,1,0,3,0.00
2013-11-14,66.0,52.8,42.0,54.0,46.3,40.0,91,79,60,30.12,29.91,2,0,4,0.00
2013-11-15,60.0,50.9,41.0,47.0,42.3,37.0,89,74,49,29.91,29.73,2,0,3,0.00
2013-11-16,59.0,46.1,36.0,49.0,40.0,-99.9,93,83,64,29.96,29.81,1,0,4,0.00
2013-11-17,57.0,48.2,42.0,50.0,44.3,40.0,94,87,72,30.11,29.96,1,0,2,0.00
2013-11-18,57.0,46.1,36.0,48.0,41.9,34.0,94,86,67,30.17,30.09,0,0,2,0.00
2013-11-19,58.0,50.8,44.0,53.0,48.3,42.0,95,91,81,30.14,29.98,0,0,1,0.02
2013-11-20,58.0,53.9,49.0,57.0,52.9,48.0,97,96,95,29.98,29.85,0,0,2,0.02
2013-11-21,52.0,49.2,45.0,49.0,47.3,42.0,97,93,76,29.96,29.90,2,0,5,0.00
2013-11-22,58.0,44.5,38.0,41.0,38.0,33.0,92,80,41,30.00,29.93,1,0,7,0.00
2013-11-23,57.0,43.6,35.0,49.0,38.5,-99.9,94,87,67,30.14,29.99,1,0,3,0.00
2013-11-24,56.0,42.8,35.0,47.0,39.5,33.0,96,89,68,30.28,30.14,1,0,2,0.00
2013-11-25,58.0,44.5,35.0,48.0,40.7,33.0,96,87,67,30.33,30.24,1,0,3,0.00
2013-11-26,60.0,47.6,37.0,50.0,43.2,35.0,94,85,62,30.27,30.05,0,0,0,0.00
2013-11-27,60.0,47.8,38.0,49.0,43.2,36.0,95,85,61,30.05,29.85,1,0,2,0.02
2013-11-28,60.0,47.3,40.0,49.0,42.7,38.0,94,85,62,30.11,29.88,1,0,2,0.02
2013-12-2,62.0,48.3,36.0,50.0,43.5,34.0,95,85,61,30.26,30.01,2,0,4,0.00
2013-12-3,51.0,46.0,35.0,48.0,39.9,32.0,95,80,56,30.00,29.85,2,0,5,0.00
2013-12-4,46.0,35.4,29.0,34.0,29.2,26.0,92,80,47,30.10,29.94,1,0,2,0.00
2013-12-5,45.0,32.6,24.0,34.0,26.7,22.0,91,80,48,30.21,30.10,1,0,4,0.00
2013-12-6,49.0,37.0,27.0,45.0,32.9,24.0,96,86,65,30.23,29.97,1,0,5,0.59
2013-12-7,47.0,38.7,30.0,46.0,35.0,-99.9,97,90,73,30.26,29.94,2,0,6,0.78
2013-12-8,40.0,31.9,27.0,33.0,28.5,25.0,94,88,73,30.33,30.20,1,0,4,0.01
2013-12-9,39.0,27.5,24.0,29.0,24.7,22.0,93,90,60,30.43,30.32,1,0,3,0.00
2013-12-10,48.0,32.3,25.0,35.0,27.9,23.0,92,85,56,30.43,30.19,1,0,2,0.00
2013-12-11,53.0,35.7,29.0,38.0,30.7,27.0,92,84,51,30.23,30.15,0,0,0,0.00
2013-12-12,54.0,36.7,28.0,38.0,31.0,26.0,92,82,50,30.28,30.17,0,0,0,0.00
2013-12-13,54.0,37.7,29.0,43.0,33.5,27.0,95,86,62,30.34,30.23,0,0,0,0.00
2013-12-14,57.0,37.5,30.0,44.0,32.5,-99.9,94,86,61,30.38,30.28,0,0,0,0.00
2013-12-15,59.0,40.2,31.0,43.0,35.5,29.0,94,85,51,30.37,30.22,0,0,0,0.00
2013-12-16,62.0,42.0,34.0,46.0,37.5,32.0,93,85,49,30.24,30.11,0,0,0,0.00
2013-12-17,63.0,46.5,36.0,48.0,41.6,34.0,92,84,52,30.18,30.04,0,0,0,0.00
2013-12-18,58.0,47.4,40.0,49.0,43.8,38.0,93,87,67,30.03,29.81,1,0,3,0.00
2013-12-19,54.0,46.2,36.0,44.0,38.5,33.0,92,76,50,29.93,29.73,3,0,10,0.00
2013-12-20,56.0,37.9,29.0,33.0,28.3,13.0,91,73,18,30.03,29.93,3,0,5,0.00
2013-12-21,60.0,42.1,32.0,49.0,35.7,-99.9,92,81,63,30.10,29.97,2,0,4,0.00
2013-12-22,59.0,44.2,35.0,46.0,39.4,33.0,95,85,55,30.32,30.10,2,0,3,0.00
2013-12-23,58.0,43.2,34.0,46.0,38.9,32.0,95,86,59,30.39,30.31,0,0,0,0.00
2013-12-24,63.0,42.3,34.0,49.0,37.9,32.0,94,86,53,30.35,30.20,2,0,3,0.00
2013-12-25,62.0,41.9,32.0,45.0,36.8,30.0,93,84,49,30.27,30.18,0,0,0,0.00
2013-12-26,62.0,40.1,33.0,44.0,35.6,31.0,93,85,43,30.26,30.14,0,0,0,0.00
2013-12-27,59.0,45.9,32.0,49.0,41.1,29.0,92,84,62,30.24,30.12,0,0,0,0.00
2013-12-28,61.0,40.9,31.0,40.0,31.8,-99.9,93,76,34,30.13,30.03,2,0,4,0.00
2013-12-29,60.0,45.2,35.0,38.0,34.3,31.0,87,69,38,30.20,30.08,1,0,2,0.00
2013-12-30,58.0,39.9,30.0,40.0,33.4,28.0,91,80,42,30.28,30.20,1,0,3,0.00
2013-12-31,59.0,40.8,30.0,39.0,33.1,27.0,90,76,40,30.28,30.13,0,0,0,0.00
2014-1-1,60.0,42.7,31.0,44.0,36.4,29.0,92,80,46,30.22,30.11,0,0,0,0.00
2014-1-2,63.0,45.2,34.0,46.0,38.9,31.0,91,80,50,30.17,30.04,0,0,0,0.00